sensor_id;sensor_type;location;lat;lon;timestamp;pressure;altitude;pressure_sealevel;temperature;humidity
43878;BME280;29815;48.184;11.268;2022-12-29T04:03:16;95289.69;;;6.02;86.09
43878;BME280;29815;48.184;11.268;2022-12-29T04:05:46;95281.94;;;6.00;89.36
43878;BME280;29815;48.184;11.268;2022-12-29T04:08:16;95283.81;;;6.00;88.63
43878;BME280;29815;48.184;11.268;2022-12-29T04:10:45;95279.44;;;5.94;92.18
43878;BME280;29815;48.184;11.268;2022-12-29T04:13:18;95276.69;;;5.89;93.64
43878;BME280;29815;48.184;11.268;2022-12-29T04:15:47;95280.06;;;5.84;96.73
43878;BME280;29815;48.184;11.268;2022-12-29T04:18:20;95284.28;;;5.80;95.68
43878;BME280;29815;48.184;11.268;2022-12-29T04:20:50;95286.16;;;5.79;94.92
43878;BME280;29815;48.184;11.268;2022-12-29T04:23:31;95282.66;;;5.79;92.87
43878;BME280;29815;48.184;11.268;2022-12-29T04:26:05;95289.63;;;5.80;92.54
43878;BME280;29815;48.184;11.268;2022-12-29T04:28:39;95283.41;;;5.74;95.60
43878;BME280;29815;48.184;11.268;2022-12-29T04:31:32;95280.19;;;5.72;92.72
43878;BME280;29815;48.184;11.268;2022-12-29T04:34:03;95280.72;;;5.74;91.46
43878;BME280;29815;48.184;11.268;2022-12-29T04:36:33;95277.53;;;5.72;93.13
43878;BME280;29815;48.184;11.268;2022-12-29T04:39:03;95275.91;;;5.71;92.83
43878;BME280;29815;48.184;11.268;2022-12-29T04:41:33;95284.41;;;5.68;94.86
43878;BME280;29815;48.184;11.268;2022-12-29T04:44:03;95283.84;;;5.66;96.01
43878;BME280;29815;48.184;11.268;2022-12-29T04:46:34;95282.78;;;5.67;94.17
43878;BME280;29815;48.184;11.268;2022-12-29T04:49:10;95272.03;;;5.62;93.15
43878;BME280;29815;48.184;11.268;2022-12-29T04:51:59;95286.34;;;5.73;86.65
43878;BME280;29815;48.184;11.268;2022-12-29T04:54:30;95283.22;;;5.81;84.30
43878;BME280;29815;48.184;11.268;2022-12-29T04:57:08;95281.13;;;5.83;86.56
43878;BME280;29815;48.184;11.268;2022-12-29T04:59:39;95280.81;;;5.79;87.85
43878;BME280;29815;48.184;11.268;2022-12-29T05:02:09;95284.53;;;5.78;89.42
43878;BME280;29815;48.184;11.268;2022-12-29T05:04:40;95292.22;;;5.75;90.87
43878;BME280;29815;48.184;11.268;2022-12-29T05:07:09;95291.13;;;5.71;88.54
43878;BME280;29815;48.184;11.268;2022-12-29T05:09:39;95282.31;;;5.70;87.41
43878;BME280;29815;48.184;11.268;2022-12-29T05:12:08;95294.03;;;5.69;88.33
43878;BME280;29815;48.184;11.268;2022-12-29T05:14:46;95296.13;;;5.67;90.15
43878;BME280;29815;48.184;11.268;2022-12-29T05:17:16;95290.97;;;5.61;92.60
43878;BME280;29815;48.184;11.268;2022-12-29T05:19:47;95292.09;;;5.65;88.66
43878;BME280;29815;48.184;11.268;2022-12-29T05:22:17;95292.59;;;5.62;92.20
43878;BME280;29815;48.184;11.268;2022-12-29T05:24:47;95283.94;;;5.55;95.91
43878;BME280;29815;48.184;11.268;2022-12-29T05:27:17;95283.13;;;5.54;94.31
43878;BME280;29815;48.184;11.268;2022-12-29T05:30:00;95285.78;;;5.54;92.02
43878;BME280;29815;48.184;11.268;2022-12-29T05:32:30;95281.34;;;5.60;90.72
43878;BME280;29815;48.184;11.268;2022-12-29T05:35:01;95285.53;;;5.56;94.44
43878;BME280;29815;48.184;11.268;2022-12-29T05:37:33;95280.19;;;5.56;95.21
43878;BME280;29815;48.184;11.268;2022-12-29T05:40:05;95281.81;;;5.57;89.49
43878;BME280;29815;48.184;11.268;2022-12-29T05:42:35;95271.16;;;5.57;90.69
43878;BME280;29815;48.184;11.268;2022-12-29T05:45:31;95266.13;;;5.60;91.28
43878;BME280;29815;48.184;11.268;2022-12-29T05:48:24;95269.75;;;5.71;94.51
43878;BME280;29815;48.184;11.268;2022-12-29T05:51:24;95270.25;;;5.68;98.99
43878;BME280;29815;48.184;11.268;2022-12-29T05:53:55;95272.53;;;5.59;99.01
43878;BME280;29815;48.184;11.268;2022-12-29T05:56:26;95272.28;;;5.61;93.73
43878;BME280;29815;48.184;11.268;2022-12-29T05:58:59;95267.81;;;5.66;90.37
43878;BME280;29815;48.184;11.268;2022-12-29T06:01:29;95275.81;;;5.66;94.76
43878;BME280;29815;48.184;11.268;2022-12-29T06:03:59;95276.19;;;5.75;85.44
43878;BME280;29815;48.184;11.268;2022-12-29T06:06:30;95277.56;;;5.77;87.48
43878;BME280;29815;48.184;11.268;2022-12-29T06:09:00;95296.19;;;5.89;83.11
43878;BME280;29815;48.184;11.268;2022-12-29T06:11:30;95291.66;;;5.90;85.03
43878;BME280;29815;48.184;11.268;2022-12-29T06:14:00;95291.19;;;5.93;85.63
43878;BME280;29815;48.184;11.268;2022-12-29T06:16:30;95282.59;;;5.91;86.94
43878;BME280;29815;48.184;11.268;2022-12-29T06:19:02;95291.81;;;6.00;83.81
43878;BME280;29815;48.184;11.268;2022-12-29T06:21:34;95289.75;;;6.07;84.97
43878;BME280;29815;48.184;11.268;2022-12-29T06:24:06;95286.09;;;6.13;83.70
43878;BME280;29815;48.184;11.268;2022-12-29T06:26:38;95273.53;;;6.14;84.62
43878;BME280;29815;48.184;11.268;2022-12-29T06:29:11;95284.53;;;6.17;84.44
43878;BME280;29815;48.184;11.268;2022-12-29T06:31:45;95285.28;;;6.13;84.06
43878;BME280;29815;48.184;11.268;2022-12-29T06:34:17;95281.47;;;6.30;78.30
43878;BME280;29815;48.184;11.268;2022-12-29T06:36:48;95284.28;;;6.40;78.47
43878;BME280;29815;48.184;11.268;2022-12-29T06:39:17;95277.81;;;6.36;79.56
43878;BME280;29815;48.184;11.268;2022-12-29T06:41:59;95281.53;;;6.35;78.45
43878;BME280;29815;48.184;11.268;2022-12-29T06:44:44;95286.41;;;6.38;79.01
43878;BME280;29815;48.184;11.268;2022-12-29T06:47:13;95277.56;;;6.38;79.94
43878;BME280;29815;48.184;11.268;2022-12-29T06:49:43;95286.00;;;6.30;78.92
43878;BME280;29815;48.184;11.268;2022-12-29T06:52:14;95289.22;;;6.27;78.33
43878;BME280;29815;48.184;11.268;2022-12-29T06:54:44;95293.38;;;6.18;80.63
43878;BME280;29815;48.184;11.268;2022-12-29T06:57:14;95292.97;;;6.09;82.58
43878;BME280;29815;48.184;11.268;2022-12-29T06:59:45;95299.03;;;5.99;85.31
43878;BME280;29815;48.184;11.268;2022-12-29T07:02:14;95298.06;;;5.89;86.35
43878;BME280;29815;48.184;11.268;2022-12-29T07:04:46;95295.44;;;5.77;89.15
43878;BME280;29815;48.184;11.268;2022-12-29T07:07:17;95307.69;;;5.73;89.11
43878;BME280;29815;48.184;11.268;2022-12-29T07:09:46;95306.94;;;5.77;83.01
43878;BME280;29815;48.184;11.268;2022-12-29T07:12:16;95317.97;;;5.98;78.37
43878;BME280;29815;48.184;11.268;2022-12-29T07:14:45;95309.16;;;6.19;77.33
43878;BME280;29815;48.184;11.268;2022-12-29T07:17:14;95314.88;;;6.28;77.23
43878;BME280;29815;48.184;11.268;2022-12-29T07:19:44;95321.63;;;6.35;76.47
43878;BME280;29815;48.184;11.268;2022-12-29T07:22:13;95325.13;;;6.36;76.75
43878;BME280;29815;48.184;11.268;2022-12-29T07:24:44;95323.50;;;6.35;77.16
43878;BME280;29815;48.184;11.268;2022-12-29T07:27:13;95320.22;;;6.28;77.66
43878;BME280;29815;48.184;11.268;2022-12-29T07:29:43;95326.88;;;6.25;77.82
43878;BME280;29815;48.184;11.268;2022-12-29T07:32:12;95336.13;;;6.18;77.44
43878;BME280;29815;48.184;11.268;2022-12-29T07:34:42;95337.88;;;6.29;76.54
43878;BME280;29815;48.184;11.268;2022-12-29T07:37:14;95338.88;;;6.23;76.50
43878;BME280;29815;48.184;11.268;2022-12-29T07:39:45;95334.88;;;6.25;74.46
43878;BME280;29815;48.184;11.268;2022-12-29T07:42:15;95334.88;;;6.25;74.60
43878;BME280;29815;48.184;11.268;2022-12-29T07:44:50;95328.84;;;6.35;73.36
43878;BME280;29815;48.184;11.268;2022-12-29T07:47:27;95322.44;;;6.36;74.09
43878;BME280;29815;48.184;11.268;2022-12-29T07:49:56;95327.53;;;6.37;74.61
43878;BME280;29815;48.184;11.268;2022-12-29T07:52:26;95320.66;;;6.41;74.24
43878;BME280;29815;48.184;11.268;2022-12-29T07:54:56;95322.41;;;6.53;73.09
43878;BME280;29815;48.184;11.268;2022-12-29T07:57:26;95320.97;;;6.45;73.77
43878;BME280;29815;48.184;11.268;2022-12-29T07:59:59;95316.56;;;6.56;73.15
43878;BME280;29815;48.184;11.268;2022-12-29T08:02:38;95310.09;;;6.52;74.39
43878;BME280;29815;48.184;11.268;2022-12-29T08:05:08;95309.44;;;6.66;73.43
43878;BME280;29815;48.184;11.268;2022-12-29T08:07:38;95310.41;;;6.82;73.15
43878;BME280;29815;48.184;11.268;2022-12-29T08:10:09;95308.19;;;7.01;72.24
43878;BME280;29815;48.184;11.268;2022-12-29T08:12:40;95299.97;;;7.07;72.53
43878;BME280;29815;48.184;11.268;2022-12-29T08:15:11;95305.69;;;7.21;72.47
43878;BME280;29815;48.184;11.268;2022-12-29T08:17:41;95305.75;;;7.26;71.56
43878;BME280;29815;48.184;11.268;2022-12-29T08:20:11;95302.84;;;7.33;72.50
43878;BME280;29815;48.184;11.268;2022-12-29T08:22:41;95313.00;;;7.63;68.36
43878;BME280;29815;48.184;11.268;2022-12-29T08:25:12;95298.72;;;7.94;67.40
43878;BME280;29815;48.184;11.268;2022-12-29T08:27:44;95300.19;;;8.22;65.99
43878;BME280;29815;48.184;11.268;2022-12-29T08:30:13;95311.06;;;8.42;66.02
43878;BME280;29815;48.184;11.268;2022-12-29T08:32:43;95309.19;;;8.48;66.08
43878;BME280;29815;48.184;11.268;2022-12-29T08:35:12;95314.56;;;8.48;66.94
43878;BME280;29815;48.184;11.268;2022-12-29T08:37:42;95327.69;;;8.39;66.34
43878;BME280;29815;48.184;11.268;2022-12-29T08:40:13;95325.50;;;8.36;67.07
43878;BME280;29815;48.184;11.268;2022-12-29T08:42:43;95321.78;;;8.37;68.33
43878;BME280;29815;48.184;11.268;2022-12-29T08:45:13;95334.03;;;8.28;67.65
43878;BME280;29815;48.184;11.268;2022-12-29T08:47:42;95331.03;;;8.25;68.60
43878;BME280;29815;48.184;11.268;2022-12-29T08:50:12;95340.03;;;8.40;67.74
43878;BME280;29815;48.184;11.268;2022-12-29T08:52:41;95337.59;;;8.39;68.01
43878;BME280;29815;48.184;11.268;2022-12-29T08:55:12;95348.84;;;8.36;70.37
43878;BME280;29815;48.184;11.268;2022-12-29T08:57:41;95351.84;;;8.44;68.89
43878;BME280;29815;48.184;11.268;2022-12-29T09:00:16;95351.31;;;8.53;68.96
43878;BME280;29815;48.184;11.268;2022-12-29T09:02:46;95352.22;;;8.68;69.67
43878;BME280;29815;48.184;11.268;2022-12-29T09:05:16;95347.66;;;8.79;68.87
43878;BME280;29815;48.184;11.268;2022-12-29T09:07:46;95349.38;;;9.00;68.35
43878;BME280;29815;48.184;11.268;2022-12-29T09:10:17;95351.28;;;9.20;68.50
43878;BME280;29815;48.184;11.268;2022-12-29T09:12:47;95349.13;;;9.22;69.42
43878;BME280;29815;48.184;11.268;2022-12-29T09:15:16;95352.09;;;9.36;66.66
43878;BME280;29815;48.184;11.268;2022-12-29T09:17:46;95353.47;;;9.48;66.98
43878;BME280;29815;48.184;11.268;2022-12-29T09:20:18;95345.94;;;9.61;67.25
43878;BME280;29815;48.184;11.268;2022-12-29T09:22:48;95353.75;;;9.67;66.12
43878;BME280;29815;48.184;11.268;2022-12-29T09:25:19;95347.28;;;9.63;67.02
43878;BME280;29815;48.184;11.268;2022-12-29T09:27:52;95340.84;;;9.64;66.43
43878;BME280;29815;48.184;11.268;2022-12-29T09:30:23;95336.53;;;9.68;66.06
43878;BME280;29815;48.184;11.268;2022-12-29T09:32:52;95340.03;;;9.64;66.38
43878;BME280;29815;48.184;11.268;2022-12-29T09:35:22;95344.31;;;9.60;67.71
43878;BME280;29815;48.184;11.268;2022-12-29T09:37:52;95338.94;;;9.60;67.29
43878;BME280;29815;48.184;11.268;2022-12-29T09:40:29;95334.41;;;9.55;66.86
43878;BME280;29815;48.184;11.268;2022-12-29T09:43:43;95348.09;;;9.59;65.14
43878;BME280;29815;48.184;11.268;2022-12-29T09:46:24;95336.03;;;9.56;65.50
43878;BME280;29815;48.184;11.268;2022-12-29T09:49:07;95345.69;;;9.52;64.45
43878;BME280;29815;48.184;11.268;2022-12-29T09:51:48;95343.00;;;9.47;64.50
43878;BME280;29815;48.184;11.268;2022-12-29T09:54:39;95346.22;;;9.44;63.55
43878;BME280;29815;48.184;11.268;2022-12-29T09:57:23;95349.44;;;9.41;64.55
43878;BME280;29815;48.184;11.268;2022-12-29T09:59:58;95355.59;;;9.36;61.45
43878;BME280;29815;48.184;11.268;2022-12-29T10:02:43;95341.63;;;9.39;60.88
43878;BME280;29815;48.184;11.268;2022-12-29T10:05:38;95348.63;;;9.45;62.26
43878;BME280;29815;48.184;11.268;2022-12-29T10:08:25;95352.91;;;9.41;62.14
43878;BME280;29815;48.184;11.268;2022-12-29T10:11:12;95353.19;;;9.35;63.00
43878;BME280;29815;48.184;11.268;2022-12-29T10:14:07;95354.25;;;9.34;63.47
43878;BME280;29815;48.184;11.268;2022-12-29T10:16:53;95344.06;;;9.41;61.42
43878;BME280;29815;48.184;11.268;2022-12-29T10:19:43;95336.25;;;9.39;62.23
43878;BME280;29815;48.184;11.268;2022-12-29T10:22:32;95330.09;;;9.44;62.23
43878;BME280;29815;48.184;11.268;2022-12-29T10:25:16;95335.47;;;9.44;61.77
43878;BME280;29815;48.184;11.268;2022-12-29T10:27:49;95320.44;;;9.53;61.71
43878;BME280;29815;48.184;11.268;2022-12-29T10:30:20;95313.97;;;9.64;60.05
43878;BME280;29815;48.184;11.268;2022-12-29T10:32:52;95313.44;;;9.77;58.78
43878;BME280;29815;48.184;11.268;2022-12-29T10:35:28;95305.63;;;9.91;58.94
43878;BME280;29815;48.184;11.268;2022-12-29T10:38:09;95298.63;;;10.00;59.49
43878;BME280;29815;48.184;11.268;2022-12-29T10:40:48;95302.09;;;10.11;58.74
43878;BME280;29815;48.184;11.268;2022-12-29T10:43:26;95296.44;;;10.23;58.64
43878;BME280;29815;48.184;11.268;2022-12-29T10:46:05;95294.50;;;10.38;57.84
43878;BME280;29815;48.184;11.268;2022-12-29T10:48:38;95280.72;;;10.50;57.58
43878;BME280;29815;48.184;11.268;2022-12-29T10:51:08;95279.09;;;10.54;57.20
43878;BME280;29815;48.184;11.268;2022-12-29T10:53:43;95283.13;;;10.62;57.02
43878;BME280;29815;48.184;11.268;2022-12-29T10:56:24;95276.53;;;10.83;54.00
43878;BME280;29815;48.184;11.268;2022-12-29T10:59:03;95263.34;;;10.87;54.75
43878;BME280;29815;48.184;11.268;2022-12-29T11:01:45;95261.97;;;10.89;55.26
43878;BME280;29815;48.184;11.268;2022-12-29T11:04:36;95276.78;;;10.92;54.82
43878;BME280;29815;48.184;11.268;2022-12-29T11:07:18;95273.53;;;10.90;56.14
43878;BME280;29815;48.184;11.268;2022-12-29T11:09:54;95275.97;;;10.91;55.89
43878;BME280;29815;48.184;11.268;2022-12-29T11:12:26;95270.59;;;10.91;55.37
43878;BME280;29815;48.184;11.268;2022-12-29T11:15:11;95279.41;;;10.97;57.41
43878;BME280;29815;48.184;11.268;2022-12-29T11:17:49;95273.75;;;10.98;55.31
43878;BME280;29815;48.184;11.268;2022-12-29T11:20:29;95272.41;;;10.96;55.31
43878;BME280;29815;48.184;11.268;2022-12-29T11:23:20;95261.06;;;11.04;58.31
43878;BME280;29815;48.184;11.268;2022-12-29T11:26:18;95264.28;;;11.06;55.05
43878;BME280;29815;48.184;11.268;2022-12-29T11:29:36;95261.00;;;11.14;55.49
43878;BME280;29815;48.184;11.268;2022-12-29T11:32:12;95266.09;;;11.15;56.87
43878;BME280;29815;48.184;11.268;2022-12-29T11:34:56;95248.88;;;11.16;54.69
43878;BME280;29815;48.184;11.268;2022-12-29T11:37:31;95244.81;;;11.19;56.30
43878;BME280;29815;48.184;11.268;2022-12-29T11:40:06;95254.97;;;11.27;54.66
43878;BME280;29815;48.184;11.268;2022-12-29T11:42:43;95246.84;;;11.32;55.80
43878;BME280;29815;48.184;11.268;2022-12-29T11:45:20;95251.63;;;11.40;55.83
43878;BME280;29815;48.184;11.268;2022-12-29T11:47:54;95247.53;;;11.48;55.16
43878;BME280;29815;48.184;11.268;2022-12-29T11:50:30;95248.00;;;11.55;56.37
43878;BME280;29815;48.184;11.268;2022-12-29T11:53:03;95243.41;;;11.56;56.61
43878;BME280;29815;48.184;11.268;2022-12-29T11:55:35;95235.28;;;11.61;56.06
43878;BME280;29815;48.184;11.268;2022-12-29T11:58:05;95233.41;;;11.61;57.63
43878;BME280;29815;48.184;11.268;2022-12-29T12:00:38;95234.47;;;11.60;57.64
43878;BME280;29815;48.184;11.268;2022-12-29T12:03:15;95236.28;;;11.70;57.61
43878;BME280;29815;48.184;11.268;2022-12-29T12:05:50;95241.03;;;11.83;56.32
43878;BME280;29815;48.184;11.268;2022-12-29T12:08:34;95244.16;;;11.95;55.08
43878;BME280;29815;48.184;11.268;2022-12-29T12:11:11;95228.06;;;12.09;55.22
43878;BME280;29815;48.184;11.268;2022-12-29T12:13:50;95216.84;;;12.02;57.23
43878;BME280;29815;48.184;11.268;2022-12-29T12:16:37;95232.09;;;12.11;57.00
43878;BME280;29815;48.184;11.268;2022-12-29T12:19:15;95229.13;;;12.13;55.43
43878;BME280;29815;48.184;11.268;2022-12-29T12:22:12;95226.38;;;12.18;56.34
43878;BME280;29815;48.184;11.268;2022-12-29T12:24:51;95227.13;;;12.24;56.35
43878;BME280;29815;48.184;11.268;2022-12-29T12:27:26;95226.31;;;12.23;56.94
43878;BME280;29815;48.184;11.268;2022-12-29T12:30:01;95217.78;;;12.35;56.07
43878;BME280;29815;48.184;11.268;2022-12-29T12:32:44;95225.66;;;12.31;57.55
43878;BME280;29815;48.184;11.268;2022-12-29T12:35:29;95214.16;;;12.26;57.18
43878;BME280;29815;48.184;11.268;2022-12-29T12:38:16;95213.63;;;12.24;57.52
43878;BME280;29815;48.184;11.268;2022-12-29T12:41:08;95218.81;;;12.39;58.58
43878;BME280;29815;48.184;11.268;2022-12-29T12:43:50;95213.47;;;12.34;59.08
43878;BME280;29815;48.184;11.268;2022-12-29T12:46:44;95208.84;;;12.39;61.07
43878;BME280;29815;48.184;11.268;2022-12-29T12:52:43;95215.19;;;12.48;61.76
43878;BME280;29815;48.184;11.268;2022-12-29T12:55:51;95202.16;;;12.56;63.07
43878;BME280;29815;48.184;11.268;2022-12-29T12:58:48;95207.63;;;12.50;63.07
43878;BME280;29815;48.184;11.268;2022-12-29T13:01:38;95198.78;;;12.45;63.66
43878;BME280;29815;48.184;11.268;2022-12-29T13:04:39;95196.66;;;12.42;64.81
43878;BME280;29815;48.184;11.268;2022-12-29T13:07:28;95192.94;;;12.38;65.17
43878;BME280;29815;48.184;11.268;2022-12-29T13:10:32;95202.16;;;12.32;65.35
43878;BME280;29815;48.184;11.268;2022-12-29T13:13:48;95195.97;;;12.31;66.21
43878;BME280;29815;48.184;11.268;2022-12-29T13:16:37;95197.09;;;12.30;67.95
43878;BME280;29815;48.184;11.268;2022-12-29T13:19:17;95191.19;;;12.28;65.78
43878;BME280;29815;48.184;11.268;2022-12-29T13:22:03;95199.09;;;12.19;67.20
43878;BME280;29815;48.184;11.268;2022-12-29T13:24:50;95194.03;;;12.13;67.37
43878;BME280;29815;48.184;11.268;2022-12-29T13:27:35;95199.38;;;12.18;66.06
43878;BME280;29815;48.184;11.268;2022-12-29T13:30:15;95211.38;;;12.07;66.12
43878;BME280;29815;48.184;11.268;2022-12-29T13:32:56;95209.19;;;12.09;68.27
43878;BME280;29815;48.184;11.268;2022-12-29T13:35:51;95206.06;;;12.02;66.92
43878;BME280;29815;48.184;11.268;2022-12-29T13:38:30;95205.25;;;12.01;65.85
43878;BME280;29815;48.184;11.268;2022-12-29T13:41:07;95204.44;;;12.01;67.20
43878;BME280;29815;48.184;11.268;2022-12-29T13:43:42;95203.66;;;12.00;67.15
43878;BME280;29815;48.184;11.268;2022-12-29T13:46:19;95195.91;;;11.94;67.14
43878;BME280;29815;48.184;11.268;2022-12-29T13:48:55;95195.94;;;11.89;66.62
43878;BME280;29815;48.184;11.268;2022-12-29T13:51:28;95202.44;;;11.88;66.79
43878;BME280;29815;48.184;11.268;2022-12-29T13:54:11;95190.59;;;11.83;66.29
43878;BME280;29815;48.184;11.268;2022-12-29T13:56:51;95194.44;;;11.77;67.05
43878;BME280;29815;48.184;11.268;2022-12-29T13:59:36;95198.03;;;11.68;68.19
43878;BME280;29815;48.184;11.268;2022-12-29T14:02:21;95201.00;;;11.66;67.50
43878;BME280;29815;48.184;11.268;2022-12-29T14:04:59;95206.44;;;11.61;70.24
43878;BME280;29815;48.184;11.268;2022-12-29T14:07:36;95199.03;;;11.48;70.40
43878;BME280;29815;48.184;11.268;2022-12-29T14:10:30;95197.59;;;11.56;70.33
43878;BME280;29815;48.184;11.268;2022-12-29T14:13:05;95202.19;;;11.55;68.86
43878;BME280;29815;48.184;11.268;2022-12-29T14:15:43;95204.06;;;11.54;70.49
43878;BME280;29815;48.184;11.268;2022-12-29T14:18:17;95205.50;;;11.47;71.84
43878;BME280;29815;48.184;11.268;2022-12-29T14:20:53;95200.69;;;11.44;71.83
43878;BME280;29815;48.184;11.268;2022-12-29T14:23:36;95198.06;;;11.34;70.88
43878;BME280;29815;48.184;11.268;2022-12-29T14:26:14;95205.34;;;11.33;71.20
43878;BME280;29815;48.184;11.268;2022-12-29T14:28:47;95198.38;;;11.27;71.01
43878;BME280;29815;48.184;11.268;2022-12-29T14:31:37;95209.41;;;11.31;72.75
43878;BME280;29815;48.184;11.268;2022-12-29T14:34:29;95204.94;;;11.21;73.12
43878;BME280;29815;48.184;11.268;2022-12-29T14:37:01;95217.81;;;11.24;74.20
43878;BME280;29815;48.184;11.268;2022-12-29T14:39:36;95223.00;;;11.15;74.58
43878;BME280;29815;48.184;11.268;2022-12-29T14:42:12;95213.94;;;11.01;75.16
43878;BME280;29815;48.184;11.268;2022-12-29T14:44:48;95215.53;;;11.07;73.79
43878;BME280;29815;48.184;11.268;2022-12-29T14:47:22;95216.63;;;11.01;73.76
43878;BME280;29815;48.184;11.268;2022-12-29T14:50:03;95205.91;;;10.96;73.37
43878;BME280;29815;48.184;11.268;2022-12-29T14:52:45;95210.75;;;10.94;74.26
43878;BME280;29815;48.184;11.268;2022-12-29T14:55:38;95213.25;;;10.85;74.93
43878;BME280;29815;48.184;11.268;2022-12-29T14:58:16;95204.97;;;10.77;74.55
43878;BME280;29815;48.184;11.268;2022-12-29T15:00:48;95210.72;;;10.65;75.63
43878;BME280;29815;48.184;11.268;2022-12-29T15:03:22;95215.06;;;10.56;77.28
43878;BME280;29815;48.184;11.268;2022-12-29T15:05:56;95218.03;;;10.55;76.72
43878;BME280;29815;48.184;11.268;2022-12-29T15:08:38;95217.78;;;10.51;77.02
43878;BME280;29815;48.184;11.268;2022-12-29T15:11:15;95216.44;;;10.43;78.69
43878;BME280;29815;48.184;11.268;2022-12-29T15:13:47;95211.41;;;10.37;78.93
43878;BME280;29815;48.184;11.268;2022-12-29T15:16:24;95210.34;;;10.33;77.97
43878;BME280;29815;48.184;11.268;2022-12-29T15:18:57;95219.66;;;10.45;76.03
43878;BME280;29815;48.184;11.268;2022-12-29T15:21:30;95221.84;;;10.43;77.06
43878;BME280;29815;48.184;11.268;2022-12-29T15:24:01;95223.78;;;10.38;78.24
43878;BME280;29815;48.184;11.268;2022-12-29T15:26:38;95216.16;;;10.50;77.17
43878;BME280;29815;48.184;11.268;2022-12-29T15:29:31;95214.84;;;10.42;80.37
43878;BME280;29815;48.184;11.268;2022-12-29T15:32:18;95222.38;;;10.45;80.60
43878;BME280;29815;48.184;11.268;2022-12-29T15:34:53;95217.31;;;10.39;81.19
43878;BME280;29815;48.184;11.268;2022-12-29T15:37:26;95212.13;;;10.47;81.35
43878;BME280;29815;48.184;11.268;2022-12-29T15:39:56;95205.41;;;10.45;85.45
43878;BME280;29815;48.184;11.268;2022-12-29T15:42:48;95209.69;;;10.51;83.74
43878;BME280;29815;48.184;11.268;2022-12-29T15:45:33;95208.63;;;10.47;85.84
43878;BME280;29815;48.184;11.268;2022-12-29T15:48:05;95215.63;;;10.48;86.41
43878;BME280;29815;48.184;11.268;2022-12-29T15:50:44;95218.31;;;10.48;89.73
43878;BME280;29815;48.184;11.268;2022-12-29T15:53:20;95219.94;;;10.44;89.97
43878;BME280;29815;48.184;11.268;2022-12-29T15:56:00;95223.72;;;10.43;92.29
43878;BME280;29815;48.184;11.268;2022-12-29T15:58:39;95222.19;;;10.32;92.83
43878;BME280;29815;48.184;11.268;2022-12-29T16:01:19;95231.06;;;10.27;91.57
43878;BME280;29815;48.184;11.268;2022-12-29T16:03:53;95235.63;;;10.32;93.84
43878;BME280;29815;48.184;11.268;2022-12-29T16:06:31;95226.75;;;10.26;91.56
43878;BME280;29815;48.184;11.268;2022-12-29T16:09:04;95221.91;;;10.28;92.44
43878;BME280;29815;48.184;11.268;2022-12-29T16:11:37;95232.41;;;10.30;94.50
43878;BME280;29815;48.184;11.268;2022-12-29T16:14:12;95225.38;;;10.39;95.92
43878;BME280;29815;48.184;11.268;2022-12-29T16:16:45;95226.47;;;10.33;95.23
43878;BME280;29815;48.184;11.268;2022-12-29T16:19:21;95235.03;;;10.40;97.50
43878;BME280;29815;48.184;11.268;2022-12-29T16:21:58;95244.22;;;10.34;95.73
43878;BME280;29815;48.184;11.268;2022-12-29T16:24:31;95249.88;;;10.32;96.10
43878;BME280;29815;48.184;11.268;2022-12-29T16:27:07;95248.78;;;10.38;96.34
43878;BME280;29815;48.184;11.268;2022-12-29T16:29:39;95244.22;;;10.39;95.04
43878;BME280;29815;48.184;11.268;2022-12-29T16:32:25;95238.84;;;10.39;97.55
43878;BME280;29815;48.184;11.268;2022-12-29T16:35:12;95245.28;;;10.38;98.24
43878;BME280;29815;48.184;11.268;2022-12-29T16:37:47;95251.50;;;10.28;98.72
43878;BME280;29815;48.184;11.268;2022-12-29T16:40:27;95243.97;;;10.30;100.00
43878;BME280;29815;48.184;11.268;2022-12-29T16:43:00;95255.53;;;10.26;100.00
43878;BME280;29815;48.184;11.268;2022-12-29T16:46:19;95246.13;;;10.28;100.00
43878;BME280;29815;48.184;11.268;2022-12-29T16:48:53;95266.31;;;10.26;100.00
43878;BME280;29815;48.184;11.268;2022-12-29T16:51:30;95260.13;;;10.25;100.00
43878;BME280;29815;48.184;11.268;2022-12-29T16:54:02;95254.75;;;10.20;100.00
43878;BME280;29815;48.184;11.268;2022-12-29T16:56:34;95249.38;;;10.20;100.00
43878;BME280;29815;48.184;11.268;2022-12-29T16:59:08;95257.97;;;10.22;100.00
43878;BME280;29815;48.184;11.268;2022-12-29T17:01:59;95260.69;;;10.12;100.00
43878;BME280;29815;48.184;11.268;2022-12-29T17:04:31;95258.00;;;10.12;100.00
43878;BME280;29815;48.184;11.268;2022-12-29T17:07:01;95249.13;;;10.11;100.00
43878;BME280;29815;48.184;11.268;2022-12-29T17:09:30;95245.06;;;10.14;100.00
43878;BME280;29815;48.184;11.268;2022-12-29T17:12:01;95253.66;;;10.16;100.00
43878;BME280;29815;48.184;11.268;2022-12-29T17:14:42;95249.88;;;10.17;100.00
43878;BME280;29815;48.184;11.268;2022-12-29T17:17:19;95254.19;;;10.18;100.00
43878;BME280;29815;48.184;11.268;2022-12-29T17:19:56;95253.38;;;10.17;100.00
43878;BME280;29815;48.184;11.268;2022-12-29T17:22:31;95254.47;;;10.16;100.00
43878;BME280;29815;48.184;11.268;2022-12-29T17:25:01;95260.09;;;10.15;97.41
43878;BME280;29815;48.184;11.268;2022-12-29T17:27:36;95263.59;;;10.15;96.19
43878;BME280;29815;48.184;11.268;2022-12-29T17:30:12;95269.25;;;10.14;96.74
43878;BME280;29815;48.184;11.268;2022-12-29T17:32:49;95263.59;;;10.15;96.36
43878;BME280;29815;48.184;11.268;2022-12-29T17:35:21;95267.16;;;10.06;96.44
43878;BME280;29815;48.184;11.268;2022-12-29T17:37:51;95265.50;;;10.15;93.40
43878;BME280;29815;48.184;11.268;2022-12-29T17:40:23;95275.19;;;10.26;92.56
43878;BME280;29815;48.184;11.268;2022-12-29T17:42:56;95264.66;;;10.35;89.10
43878;BME280;29815;48.184;11.268;2022-12-29T17:45:29;95278.91;;;10.35;90.82
43878;BME280;29815;48.184;11.268;2022-12-29T17:48:00;95265.44;;;10.40;89.23
43878;BME280;29815;48.184;11.268;2022-12-29T17:50:30;95267.31;;;10.40;89.76